createdAt,value
2024-05-09T00:00:31.554Z,0.00
2024-05-09T00:01:26.836Z,0.00
2024-05-09T00:02:26.920Z,0.00
2024-05-09T00:03:26.907Z,0.00
2024-05-09T00:04:26.790Z,0.00
2024-05-09T00:05:26.789Z,0.00
2024-05-09T00:06:26.777Z,0.00
2024-05-09T00:07:26.768Z,0.00
2024-05-09T00:08:26.732Z,0.00
2024-05-09T00:09:26.706Z,0.00
2024-05-09T00:10:35.024Z,0.00
2024-05-09T00:11:26.788Z,0.00
2024-05-09T00:12:26.714Z,0.00
2024-05-09T00:13:26.672Z,0.00
2024-05-09T00:14:26.843Z,0.00
2024-05-09T00:15:26.669Z,0.00
2024-05-09T00:16:26.642Z,0.00
2024-05-09T00:17:26.873Z,0.00
2024-05-09T00:18:26.753Z,0.00
2024-05-09T00:19:26.706Z,0.00
2024-05-09T00:20:35.090Z,0.00
2024-05-09T00:21:26.592Z,0.00
2024-05-09T00:22:26.589Z,0.00
2024-05-09T00:23:26.639Z,0.00
2024-05-09T00:24:26.567Z,0.00
2024-05-09T00:25:26.572Z,0.00
2024-05-09T00:26:26.610Z,0.00
2024-05-09T00:27:26.514Z,0.00
2024-05-09T00:28:26.513Z,0.00
2024-05-09T00:29:26.719Z,0.00
2024-05-09T00:30:33.489Z,0.00
2024-05-09T00:31:26.542Z,0.00
2024-05-09T00:32:26.791Z,0.00
2024-05-09T00:33:26.777Z,0.00
2024-05-09T00:34:26.567Z,0.00
2024-05-09T00:35:26.571Z,0.00
2024-05-09T00:36:26.436Z,0.00
2024-05-09T00:37:26.416Z,0.00
2024-05-09T00:38:26.526Z,0.00
2024-05-09T00:39:26.432Z,0.00
2024-05-09T00:40:35.599Z,0.00
2024-05-09T00:41:26.442Z,0.00
2024-05-09T00:42:26.372Z,0.00
2024-05-09T00:43:26.349Z,0.00
2024-05-09T00:44:26.441Z,0.00
2024-05-09T00:45:26.336Z,0.00
2024-05-09T00:46:26.349Z,0.00
2024-05-09T00:47:26.483Z,0.00
2024-05-09T00:48:26.619Z,0.00
2024-05-09T00:49:26.522Z,0.00
2024-05-09T00:50:34.077Z,0.00
2024-05-09T00:51:26.277Z,0.00
2024-05-09T00:52:26.292Z,0.00
2024-05-09T00:53:26.323Z,0.00
2024-05-09T00:54:28.123Z,0.00
2024-05-09T00:55:26.229Z,0.00
2024-05-09T00:56:26.300Z,0.00
2024-05-09T00:57:26.213Z,0.00
2024-05-09T00:58:26.239Z,0.00
2024-05-09T00:59:26.333Z,0.00
2024-05-09T01:00:31.904Z,0.00
2024-05-09T01:01:26.227Z,0.00
2024-05-09T01:02:26.192Z,0.00
2024-05-09T01:03:26.449Z,0.00
2024-05-09T01:04:26.162Z,0.00
2024-05-09T01:05:26.150Z,0.00
2024-05-09T01:06:26.113Z,0.00
2024-05-09T01:07:26.091Z,0.00
2024-05-09T01:08:26.124Z,0.00
2024-05-09T01:09:26.079Z,0.00
2024-05-09T01:10:33.549Z,0.00
2024-05-09T01:11:26.178Z,0.00
2024-05-09T01:12:26.115Z,0.00
2024-05-09T01:13:26.051Z,0.00
2024-05-09T01:14:26.197Z,0.00
2024-05-09T01:15:26.045Z,0.00
2024-05-09T01:16:26.027Z,0.00
2024-05-09T01:17:26.127Z,0.00
2024-05-09T01:18:26.060Z,0.00
2024-05-09T01:19:26.205Z,0.00
2024-05-09T01:20:37.199Z,0.00
2024-05-09T01:21:26.003Z,0.00
2024-05-09T01:22:25.972Z,0.00
2024-05-09T01:23:25.955Z,0.00
2024-05-09T01:24:25.924Z,0.00
2024-05-09T01:25:25.909Z,0.00
2024-05-09T01:26:26.019Z,0.00
2024-05-09T01:27:25.896Z,0.00
2024-05-09T01:28:25.886Z,0.00
2024-05-09T01:29:26.052Z,0.00
2024-05-09T01:30:33.005Z,0.00
2024-05-09T01:31:25.867Z,0.00
2024-05-09T01:32:26.001Z,0.00
2024-05-09T01:33:26.093Z,0.00
2024-05-09T01:34:25.831Z,0.00
2024-05-09T01:35:25.886Z,0.00
2024-05-09T01:36:25.792Z,0.00
2024-05-09T01:37:25.774Z,0.00
2024-05-09T01:38:25.821Z,0.00
2024-05-09T01:39:25.766Z,0.00
2024-05-09T01:40:36.109Z,0.00
2024-05-09T01:41:25.799Z,0.00
2024-05-09T01:42:25.737Z,0.00
2024-05-09T01:43:25.737Z,0.00
2024-05-09T01:44:25.793Z,0.00
2024-05-09T01:45:25.682Z,0.00
2024-05-09T01:46:25.711Z,0.00
2024-05-09T01:47:25.842Z,0.00
2024-05-09T01:48:25.734Z,0.00
2024-05-09T01:49:25.754Z,0.00
2024-05-09T01:50:37.014Z,0.00
2024-05-09T01:51:25.659Z,0.00
2024-05-09T01:52:25.648Z,0.00
2024-05-09T01:53:25.701Z,0.00
2024-05-09T01:54:25.597Z,0.00
2024-05-09T01:55:25.581Z,0.00
2024-05-09T01:56:25.604Z,0.00
2024-05-09T01:57:25.555Z,0.00
2024-05-09T01:58:25.552Z,0.00
2024-05-09T01:59:25.766Z,0.00
2024-05-09T02:00:34.185Z,0.00
2024-05-09T02:01:25.531Z,0.00
2024-05-09T02:02:25.599Z,0.00
2024-05-09T02:03:25.631Z,0.00
2024-05-09T02:04:25.803Z,0.00
2024-05-09T02:05:25.622Z,0.00
2024-05-09T02:06:25.484Z,0.00
2024-05-09T02:07:25.452Z,0.00
2024-05-09T02:08:25.517Z,0.00
2024-05-09T02:09:25.425Z,0.00
2024-05-09T02:10:31.965Z,0.00
2024-05-09T02:11:25.503Z,0.00
2024-05-09T02:12:25.554Z,0.00
2024-05-09T02:13:25.399Z,0.00
2024-05-09T02:14:25.445Z,0.00
2024-05-09T02:15:25.405Z,0.00
2024-05-09T02:16:25.366Z,0.00
2024-05-09T02:17:25.534Z,0.00
2024-05-09T02:18:25.534Z,0.00
2024-05-09T02:19:25.462Z,0.00
2024-05-09T02:20:33.830Z,0.00
2024-05-09T02:21:25.326Z,0.00
2024-05-09T02:22:25.304Z,0.00
2024-05-09T02:23:25.332Z,0.00
2024-05-09T02:24:25.273Z,0.00
2024-05-09T02:25:25.261Z,0.00
2024-05-09T02:26:25.279Z,0.00
2024-05-09T02:27:25.260Z,0.00
2024-05-09T02:28:25.239Z,0.00
2024-05-09T02:29:25.400Z,0.00
2024-05-09T02:30:35.124Z,0.00
2024-05-09T02:31:25.203Z,0.00
2024-05-09T02:32:25.396Z,0.00
2024-05-09T02:33:25.479Z,0.00
2024-05-09T02:34:25.298Z,0.00
2024-05-09T02:35:25.210Z,0.00
2024-05-09T02:36:25.155Z,0.00
2024-05-09T02:37:25.151Z,0.00
2024-05-09T02:38:25.184Z,0.00
2024-05-09T02:39:25.188Z,0.00
2024-05-09T02:40:33.364Z,0.00
2024-05-09T02:41:25.184Z,0.00
2024-05-09T02:42:25.082Z,0.00
2024-05-09T02:43:25.084Z,0.00
2024-05-09T02:44:25.188Z,0.00
2024-05-09T02:45:25.080Z,0.00
2024-05-09T02:46:25.076Z,0.00
2024-05-09T02:47:25.169Z,0.00
2024-05-09T02:48:25.167Z,0.00
2024-05-09T02:49:25.079Z,0.00
2024-05-09T02:50:33.537Z,0.00
2024-05-09T02:51:25.017Z,0.00
2024-05-09T02:52:24.975Z,0.00
2024-05-09T02:53:24.991Z,0.00
2024-05-09T02:54:24.968Z,0.00
2024-05-09T02:55:24.980Z,0.00
2024-05-09T02:56:24.971Z,0.00
2024-05-09T02:57:24.943Z,0.00
2024-05-09T02:58:24.913Z,0.00
2024-05-09T02:59:25.025Z,0.00
2024-05-09T03:00:34.241Z,0.00
2024-05-09T03:01:24.907Z,0.00
2024-05-09T03:02:24.971Z,0.00
2024-05-09T03:03:25.127Z,0.00
2024-05-09T03:04:24.891Z,0.00
2024-05-09T03:05:24.969Z,0.00
2024-05-09T03:06:24.838Z,0.00
2024-05-09T03:07:24.825Z,0.00
2024-05-09T03:08:24.819Z,1.00
2024-05-09T03:09:24.810Z,0.00
2024-05-09T03:10:28.631Z,0.00
2024-05-09T03:11:24.831Z,1.00
2024-05-09T03:12:24.779Z,1.00
2024-05-09T03:13:24.731Z,1.00
2024-05-09T03:14:24.935Z,0.00
2024-05-09T03:15:24.684Z,2.00
2024-05-09T03:16:24.680Z,1.00
2024-05-09T03:17:24.909Z,1.00
2024-05-09T03:18:24.771Z,0.00
2024-05-09T03:19:24.778Z,1.00
2024-05-09T03:20:32.279Z,1.00
2024-05-09T03:21:24.631Z,1.00
2024-05-09T03:22:24.692Z,3.00
2024-05-09T03:23:24.640Z,3.00
2024-05-09T03:24:24.606Z,2.00
2024-05-09T03:25:24.609Z,3.00
2024-05-09T03:26:24.601Z,4.00
2024-05-09T03:27:24.536Z,4.00
2024-05-09T03:28:24.524Z,6.00
2024-05-09T03:29:24.682Z,7.00
2024-05-09T03:30:31.188Z,6.00
2024-05-09T03:31:24.519Z,10.00
2024-05-09T03:32:24.631Z,13.00
2024-05-09T03:33:24.741Z,14.00
2024-05-09T03:34:24.512Z,17.00
2024-05-09T03:35:24.578Z,20.00
2024-05-09T03:36:24.489Z,23.00
2024-05-09T03:37:24.435Z,25.00
2024-05-09T03:38:24.446Z,31.00
2024-05-09T03:39:24.422Z,43.00
2024-05-09T03:40:28.917Z,42.00
2024-05-09T03:41:24.486Z,52.00
2024-05-09T03:42:24.424Z,53.00
2024-05-09T03:43:24.664Z,65.00
2024-05-09T03:44:24.383Z,77.00
2024-05-09T03:45:24.363Z,86.00
2024-05-09T03:46:24.355Z,94.00
2024-05-09T03:47:24.448Z,102.00
2024-05-09T03:48:24.546Z,118.00
2024-05-09T03:49:24.753Z,135.00
2024-05-09T03:50:30.162Z,147.00
2024-05-09T03:51:24.304Z,160.00
2024-05-09T03:52:24.274Z,177.00
2024-05-09T03:53:24.352Z,194.00
2024-05-09T03:54:24.304Z,206.00
2024-05-09T03:55:24.296Z,226.00
2024-05-09T03:56:24.326Z,242.00
2024-05-09T03:57:24.315Z,258.00
2024-05-09T03:58:24.216Z,281.00
2024-05-09T03:59:24.378Z,302.00
2024-05-09T04:00:31.369Z,331.00
2024-05-09T04:01:24.308Z,346.00
2024-05-09T04:02:24.253Z,369.00
2024-05-09T04:03:24.484Z,395.00
2024-05-09T04:04:24.175Z,419.00
2024-05-09T04:05:24.170Z,441.00
2024-05-09T04:06:24.200Z,465.00
2024-05-09T04:07:24.141Z,491.00
2024-05-09T04:08:24.263Z,517.00
2024-05-09T04:09:24.112Z,540.00
2024-05-09T04:10:31.027Z,573.00
2024-05-09T04:11:24.195Z,607.00
2024-05-09T04:12:24.142Z,634.00
2024-05-09T04:13:24.060Z,663.00
2024-05-09T04:14:24.094Z,695.00
2024-05-09T04:15:24.050Z,726.00
2024-05-09T04:16:24.054Z,755.00
2024-05-09T04:17:24.142Z,788.00
2024-05-09T04:18:24.169Z,819.00
2024-05-09T04:19:24.166Z,852.00
2024-05-09T04:20:33.449Z,884.00
2024-05-09T04:21:23.970Z,915.00
2024-05-09T04:22:23.960Z,953.00
2024-05-09T04:23:24.093Z,986.00
2024-05-09T04:24:23.985Z,1015.00
2024-05-09T04:25:23.938Z,1048.00
2024-05-09T04:26:23.948Z,1081.00
2024-05-09T04:27:23.901Z,1111.00
2024-05-09T04:28:23.932Z,1138.00
2024-05-09T04:29:23.939Z,1183.00
2024-05-09T04:30:34.303Z,1215.00
2024-05-09T04:31:23.883Z,1248.00
2024-05-09T04:32:24.137Z,1278.00
2024-05-09T04:33:24.151Z,1313.00
2024-05-09T04:34:23.947Z,1343.00
2024-05-09T04:35:23.991Z,1379.00
2024-05-09T04:36:23.861Z,1408.00
2024-05-09T04:37:23.836Z,1444.00
2024-05-09T04:38:23.910Z,1479.00
2024-05-09T04:39:23.795Z,1511.00
2024-05-09T04:40:28.485Z,1542.00
2024-05-09T04:41:23.833Z,1573.00
2024-05-09T04:42:23.743Z,1607.00
2024-05-09T04:43:23.742Z,1635.00
2024-05-09T04:44:23.786Z,1668.00
2024-05-09T04:45:23.716Z,1698.00
2024-05-09T04:46:23.706Z,1726.00
2024-05-09T04:47:23.866Z,1756.00
2024-05-09T04:48:23.841Z,1789.00
2024-05-09T04:49:23.929Z,1821.00
2024-05-09T04:50:32.720Z,1850.00
2024-05-09T04:51:23.669Z,1880.00
2024-05-09T04:52:23.651Z,1908.00
2024-05-09T04:53:23.745Z,1940.00
2024-05-09T04:54:33.648Z,1966.00
2024-05-09T04:55:23.612Z,1998.00
2024-05-09T04:56:23.637Z,2026.00
2024-05-09T04:57:23.606Z,2059.00
2024-05-09T04:58:23.612Z,2083.00
2024-05-09T04:59:23.629Z,2109.00
2024-05-09T05:00:32.383Z,2145.00
2024-05-09T05:01:23.612Z,2171.00
2024-05-09T05:02:23.659Z,2201.00
2024-05-09T05:03:23.671Z,2230.00
2024-05-09T05:04:23.518Z,2249.00
2024-05-09T05:05:23.563Z,2271.00
2024-05-09T05:06:23.493Z,2294.00
2024-05-09T05:07:23.477Z,2317.00
2024-05-09T05:08:23.541Z,2339.00
2024-05-09T05:09:23.478Z,2365.00
2024-05-09T05:10:32.915Z,2389.00
2024-05-09T05:11:23.583Z,2417.00
2024-05-09T05:12:23.571Z,2443.00
2024-05-09T05:13:24.259Z,2471.00
2024-05-09T05:14:23.440Z,2495.00
2024-05-09T05:15:23.391Z,2523.00
2024-05-09T05:16:23.387Z,2555.00
2024-05-09T05:17:23.530Z,2584.00
2024-05-09T05:18:23.493Z,2612.00
2024-05-09T05:19:23.449Z,2644.00
2024-05-09T05:20:30.920Z,2676.00
2024-05-09T05:21:23.396Z,2706.00
2024-05-09T05:22:23.343Z,2733.00
2024-05-09T05:23:23.772Z,2765.00
2024-05-09T05:24:23.321Z,2798.00
2024-05-09T05:25:23.299Z,2827.00
2024-05-09T05:26:23.423Z,2853.00
2024-05-09T05:27:23.287Z,2876.00
2024-05-09T05:28:23.335Z,2906.00
2024-05-09T05:29:23.331Z,2938.00
2024-05-09T05:30:29.008Z,2958.00
2024-05-09T05:31:23.252Z,2989.00
2024-05-09T05:32:23.409Z,3025.00
2024-05-09T05:33:23.723Z,3049.00
2024-05-09T05:34:23.194Z,3077.00
2024-05-09T05:35:23.346Z,3102.00
2024-05-09T05:36:23.166Z,3133.00
2024-05-09T05:37:23.168Z,3161.00
2024-05-09T05:38:26.277Z,3187.00
2024-05-09T05:39:23.159Z,3206.00
2024-05-09T05:40:32.155Z,3218.00
2024-05-09T05:41:23.229Z,3236.00
2024-05-09T05:42:23.161Z,3277.00
2024-05-09T05:43:23.135Z,3295.00
2024-05-09T05:44:23.119Z,3319.00
2024-05-09T05:45:23.073Z,3336.00
2024-05-09T05:46:23.085Z,3464.00
2024-05-09T05:47:23.205Z,3517.00
2024-05-09T05:48:23.354Z,3542.00
2024-05-09T05:49:23.233Z,3583.00
2024-05-09T05:50:28.044Z,3626.00
2024-05-09T05:51:23.074Z,3665.00
2024-05-09T05:52:23.033Z,3685.00
2024-05-09T05:53:23.032Z,3707.00
2024-05-09T05:54:23.010Z,3727.00
2024-05-09T05:55:22.990Z,3780.00
2024-05-09T05:56:23.013Z,3817.00
2024-05-09T05:57:22.969Z,3879.00
2024-05-09T05:58:22.933Z,3924.00
2024-05-09T05:59:23.009Z,3994.00
2024-05-09T06:00:29.826Z,4054.00
2024-05-09T06:01:22.953Z,4083.00
2024-05-09T06:02:23.019Z,4128.00
2024-05-09T06:03:23.024Z,4158.00
2024-05-09T06:04:22.877Z,4189.00
2024-05-09T06:05:23.840Z,4226.00
2024-05-09T06:06:22.844Z,4259.00
2024-05-09T06:07:22.863Z,4290.00
2024-05-09T06:08:23.718Z,4319.00
2024-05-09T06:09:22.823Z,4347.00
2024-05-09T06:10:29.603Z,4378.00
2024-05-09T06:11:22.890Z,4399.00
2024-05-09T06:12:22.942Z,4424.00
2024-05-09T06:13:22.778Z,4456.00
2024-05-09T06:14:22.786Z,4483.00
2024-05-09T06:15:22.790Z,4503.00
2024-05-09T06:16:22.737Z,4520.00
2024-05-09T06:17:22.916Z,4540.00
2024-05-09T06:18:23.220Z,4560.00
2024-05-09T06:19:22.824Z,4573.00
2024-05-09T06:20:31.590Z,4595.00
2024-05-09T06:21:22.808Z,4610.00
2024-05-09T06:22:22.669Z,4624.00
2024-05-09T06:23:22.823Z,4645.00
2024-05-09T06:24:22.655Z,4653.00
2024-05-09T06:25:22.654Z,4660.00
2024-05-09T06:26:22.690Z,4671.00
2024-05-09T06:27:22.636Z,4669.00
2024-05-09T06:28:22.607Z,4682.00
2024-05-09T06:29:22.635Z,4671.00
2024-05-09T06:30:30.056Z,4664.00
2024-05-09T06:31:22.577Z,4623.00
2024-05-09T06:32:22.776Z,4548.00
2024-05-09T06:33:22.800Z,4505.00
2024-05-09T06:34:22.848Z,4497.00
2024-05-09T06:35:22.599Z,4501.00
2024-05-09T06:36:22.564Z,4528.00
2024-05-09T06:37:22.512Z,4555.00
2024-05-09T06:38:22.576Z,4577.00
2024-05-09T06:39:22.512Z,4596.00
2024-05-09T06:40:25.900Z,4622.00
2024-05-09T06:41:22.531Z,4635.00
2024-05-09T06:42:22.466Z,4659.00
2024-05-09T06:43:22.452Z,4688.00
2024-05-09T06:44:22.616Z,4705.00
2024-05-09T06:45:22.462Z,4730.00
2024-05-09T06:46:22.417Z,4748.00
2024-05-09T06:47:22.519Z,4781.00
2024-05-09T06:48:22.975Z,4796.00
2024-05-09T06:49:22.542Z,4828.00
2024-05-09T06:50:24.478Z,4850.00
2024-05-09T06:51:22.432Z,4880.00
2024-05-09T06:52:22.412Z,4902.00
2024-05-09T06:53:22.425Z,4925.00
2024-05-09T06:54:22.445Z,4955.00
2024-05-09T06:55:22.373Z,4978.00
2024-05-09T06:56:22.395Z,4996.00
2024-05-09T06:57:22.330Z,5029.00
2024-05-09T06:58:22.321Z,5064.00
2024-05-09T06:59:22.569Z,5091.00
2024-05-09T07:00:30.205Z,5117.00
2024-05-09T07:01:22.528Z,5162.00
2024-05-09T07:02:22.487Z,5191.00
2024-05-09T07:03:22.360Z,5235.00
2024-05-09T07:04:22.369Z,5286.00
2024-05-09T07:05:22.367Z,5303.00
2024-05-09T07:06:22.207Z,5388.00
2024-05-09T07:07:22.197Z,5431.00
2024-05-09T07:08:22.348Z,5488.00
2024-05-09T07:09:22.184Z,5564.00
2024-05-09T07:10:28.875Z,5650.00
2024-05-09T07:11:22.268Z,5739.00
2024-05-09T07:12:22.242Z,5807.00
2024-05-09T07:13:22.137Z,5886.00
2024-05-09T07:14:22.177Z,5919.00
2024-05-09T07:15:22.135Z,5908.00
2024-05-09T07:16:22.120Z,6072.00
2024-05-09T07:17:22.190Z,6777.00
2024-05-09T07:18:22.261Z,7399.00
2024-05-09T07:19:22.180Z,7704.00
2024-05-09T07:20:31.623Z,7940.00
2024-05-09T07:21:22.091Z,8239.00
2024-05-09T07:22:22.054Z,8568.00
2024-05-09T07:23:22.095Z,8912.00
2024-05-09T07:24:22.008Z,9265.00
2024-05-09T07:25:21.995Z,9622.00
2024-05-09T07:26:22.042Z,9986.00
2024-05-09T07:27:22.008Z,10260.00
2024-05-09T07:28:22.024Z,10520.00
2024-05-09T07:29:22.034Z,10842.00
2024-05-09T07:30:27.596Z,11063.00
2024-05-09T07:31:21.938Z,11190.00
2024-05-09T07:32:22.140Z,11360.00
2024-05-09T07:33:23.604Z,11416.00
2024-05-09T07:34:22.046Z,11656.00
2024-05-09T07:35:21.964Z,11764.00
2024-05-09T07:36:21.898Z,11893.00
2024-05-09T07:37:21.884Z,11966.00
2024-05-09T07:38:22.012Z,12110.00
2024-05-09T07:39:21.843Z,12173.00
2024-05-09T07:40:31.561Z,12272.00
2024-05-09T07:41:21.907Z,12377.00
2024-05-09T07:42:21.814Z,12516.00
2024-05-09T07:43:21.816Z,12575.00
2024-05-09T07:44:21.888Z,12701.00
2024-05-09T07:45:40.598Z,12742.00
2024-05-09T07:48:56.508Z,11834.00
2024-05-09T07:52:22.638Z,12725.00
2024-05-09T07:53:42.105Z,12984.00
2024-05-09T07:53:53.399Z,13109.00
2024-05-09T07:54:44.997Z,13509.00
2024-05-09T07:55:45.080Z,13636.00
2024-05-09T07:56:44.997Z,13675.00
2024-05-09T07:57:44.947Z,13807.00
2024-05-09T07:58:44.837Z,13809.00
2024-05-09T07:59:44.830Z,13926.00
2024-05-09T08:00:45.040Z,13983.00
2024-05-09T08:01:45.071Z,14058.00
2024-05-09T08:02:44.851Z,14189.00
2024-05-09T08:03:45.072Z,14210.00
2024-05-09T08:04:44.954Z,14296.00
2024-05-09T08:05:44.848Z,14315.00
2024-05-09T08:06:44.810Z,14417.00
2024-05-09T08:07:44.763Z,14478.00
2024-05-09T08:08:44.779Z,14586.00
2024-05-09T08:09:44.791Z,14635.00
2024-05-09T08:10:44.864Z,14716.00
2024-05-09T08:11:44.852Z,14777.00
2024-05-09T08:12:44.675Z,14879.00
2024-05-09T08:13:44.684Z,14920.00
2024-05-09T08:14:44.719Z,15058.00
2024-05-09T08:15:44.934Z,15079.00
2024-05-09T08:16:44.643Z,15087.00
2024-05-09T08:17:44.702Z,15208.00
2024-05-09T08:18:44.774Z,15283.00
2024-05-09T08:19:44.728Z,15357.00
2024-05-09T08:20:44.653Z,15467.00
2024-05-09T08:21:44.659Z,15546.00
2024-05-09T08:22:44.597Z,15568.00
2024-05-09T08:23:44.580Z,15715.00
2024-05-09T08:24:44.628Z,15788.00
2024-05-09T08:25:44.558Z,15836.00
2024-05-09T08:26:44.575Z,15896.00
2024-05-09T08:27:44.553Z,15960.00
2024-05-09T08:28:44.582Z,16023.00
2024-05-09T08:29:44.691Z,16173.00
2024-05-09T08:30:44.795Z,16268.00
2024-05-09T08:31:44.689Z,16289.00
2024-05-09T08:32:44.609Z,16413.00
2024-05-09T08:33:44.703Z,16433.00
2024-05-09T08:34:44.752Z,16535.00
2024-05-09T08:35:44.504Z,16617.00
2024-05-09T08:36:44.498Z,16576.00
2024-05-09T08:37:44.513Z,16660.00
2024-05-09T08:38:44.457Z,16793.00
2024-05-09T08:39:44.578Z,16767.00
2024-05-09T08:40:44.641Z,16943.00
2024-05-09T08:41:44.413Z,17001.00
2024-05-09T08:42:44.533Z,17036.00
2024-05-09T08:43:44.433Z,17203.00
2024-05-09T08:44:44.375Z,17474.00
2024-05-09T08:45:45.438Z,17548.00
2024-05-09T08:46:44.350Z,17636.00
2024-05-09T08:47:44.434Z,17960.00
2024-05-09T08:48:44.582Z,18083.00
2024-05-09T08:49:44.396Z,18132.00
2024-05-09T08:50:45.347Z,18490.00
2024-05-09T08:51:44.376Z,18640.00
2024-05-09T08:52:44.296Z,18792.00
2024-05-09T08:53:44.273Z,18900.00
2024-05-09T08:54:44.366Z,19143.00
2024-05-09T08:55:44.673Z,19418.00
2024-05-09T08:56:44.264Z,19286.00
2024-05-09T08:57:44.258Z,19891.00
2024-05-09T08:58:44.250Z,20918.00
2024-05-09T08:59:44.210Z,22105.00
2024-05-09T09:00:44.703Z,23306.00
2024-05-09T09:01:44.415Z,23956.00
2024-05-09T09:02:44.645Z,24444.00
2024-05-09T09:03:44.322Z,24698.00
2024-05-09T09:04:44.335Z,25038.00
2024-05-09T09:05:44.226Z,25104.00
2024-05-09T09:06:44.436Z,25039.00
2024-05-09T09:07:44.156Z,23787.00
2024-05-09T09:08:44.129Z,22520.00
2024-05-09T09:09:44.345Z,76579.00
2024-05-09T09:10:44.237Z,79518.00
2024-05-09T09:11:44.193Z,80377.00
2024-05-09T09:12:44.236Z,79391.00
2024-05-09T09:13:44.096Z,78019.00
2024-05-09T09:14:44.145Z,77890.00
2024-05-09T09:15:44.093Z,78463.00
2024-05-09T09:16:44.093Z,79016.00
2024-05-09T09:17:44.206Z,80804.00
2024-05-09T09:18:44.332Z,80052.00
2024-05-09T09:19:44.154Z,79195.00
2024-05-09T09:20:44.227Z,81562.00
2024-05-09T09:21:44.067Z,82527.00
2024-05-09T09:22:44.024Z,80444.00
2024-05-09T09:23:44.022Z,80008.00
2024-05-09T09:24:44.047Z,82141.00
2024-05-09T09:25:43.993Z,81849.00
2024-05-09T09:26:43.970Z,79640.00
2024-05-09T09:27:44.022Z,77942.00
2024-05-09T09:28:43.939Z,77625.00
2024-05-09T09:29:43.970Z,78599.00
2024-05-09T09:30:44.035Z,79649.00
2024-05-09T09:31:43.978Z,78833.00
2024-05-09T09:32:43.992Z,78128.00
2024-05-09T09:33:44.187Z,79183.00
2024-05-09T09:34:43.996Z,71337.00
2024-05-09T09:35:43.959Z,16650.00
2024-05-09T09:36:44.030Z,79302.00
2024-05-09T09:37:43.903Z,78172.00
2024-05-09T09:38:43.934Z,79316.00
2024-05-09T09:39:43.954Z,80785.00
2024-05-09T09:40:48.306Z,81149.00
2024-05-09T09:41:43.956Z,81388.00
2024-05-09T09:42:43.935Z,81101.00
2024-05-09T09:43:43.954Z,80505.00
2024-05-09T09:44:47.771Z,80635.00
2024-05-09T09:45:43.993Z,80803.00
2024-05-09T09:46:43.799Z,80391.00
2024-05-09T09:47:43.911Z,80105.00
2024-05-09T09:48:43.910Z,80725.00
2024-05-09T09:49:43.888Z,79667.00
2024-05-09T09:50:43.766Z,78466.00
2024-05-09T09:51:43.980Z,78289.00
2024-05-09T09:52:43.746Z,79979.00
2024-05-09T09:53:43.964Z,81273.00
2024-05-09T09:54:43.987Z,80968.00
2024-05-09T09:55:43.837Z,58442.00
2024-05-09T09:56:43.765Z,79113.00
2024-05-09T09:57:43.869Z,81615.00
2024-05-09T09:58:43.669Z,82207.00
2024-05-09T09:59:43.801Z,81461.00
2024-05-09T10:00:43.922Z,81423.00
2024-05-09T10:01:43.827Z,81231.00
2024-05-09T10:02:43.826Z,79254.00
2024-05-09T10:03:43.991Z,78764.00
2024-05-09T10:04:44.021Z,78778.00
2024-05-09T10:05:46.332Z,79510.00
2024-05-09T10:06:43.650Z,81111.00
2024-05-09T10:07:43.594Z,82119.00
2024-05-09T10:08:43.589Z,80654.00
2024-05-09T10:09:43.633Z,82509.00
2024-05-09T10:10:43.947Z,80414.00
2024-05-09T10:11:49.155Z,79765.00
2024-05-09T10:12:43.583Z,81185.00
2024-05-09T10:13:43.595Z,80549.00
2024-05-09T10:14:43.576Z,80790.00
2024-05-09T10:15:43.617Z,82201.00
2024-05-09T10:16:43.572Z,79980.00
2024-05-09T10:17:43.641Z,82525.00
2024-05-09T10:18:43.859Z,81722.00
2024-05-09T10:19:43.646Z,82263.00
2024-05-09T10:20:43.921Z,80899.00
2024-05-09T10:21:43.590Z,79831.00
2024-05-09T10:22:43.574Z,81331.00
2024-05-09T10:23:43.589Z,82518.00
2024-05-09T10:24:43.536Z,81738.00
2024-05-09T10:25:43.920Z,81134.00
2024-05-09T10:26:43.512Z,81272.00
2024-05-09T10:27:43.599Z,81461.00
2024-05-09T10:28:43.525Z,79272.00
2024-05-09T10:29:43.436Z,78711.00
2024-05-09T10:30:44.474Z,76665.00
2024-05-09T10:31:43.717Z,59445.00
2024-05-09T10:32:43.490Z,9276.00
2024-05-09T10:33:43.555Z,11890.00
2024-05-09T10:34:43.512Z,9268.00
2024-05-09T10:35:43.457Z,6412.00
2024-05-09T10:36:43.585Z,82080.00
2024-05-09T10:37:43.355Z,81906.00
2024-05-09T10:38:43.479Z,81708.00
2024-05-09T10:39:43.674Z,81711.00
2024-05-09T10:40:43.456Z,59588.00
2024-05-09T10:41:43.308Z,5768.00
2024-05-09T10:42:43.587Z,81068.00
2024-05-09T10:43:43.343Z,81662.00
2024-05-09T10:44:43.273Z,81831.00
2024-05-09T10:45:43.417Z,81558.00
2024-05-09T10:46:43.500Z,81812.00
2024-05-09T10:47:43.396Z,81870.00
2024-05-09T10:48:44.268Z,81477.00
2024-05-09T10:49:43.361Z,80767.00
2024-05-09T10:50:43.285Z,78969.00
2024-05-09T10:51:43.348Z,79513.00
2024-05-09T10:52:43.250Z,82242.00
2024-05-09T10:53:43.826Z,82170.00
2024-05-09T10:54:43.223Z,81343.00
2024-05-09T10:55:43.212Z,63442.00
2024-05-09T10:56:43.236Z,6783.00
2024-05-09T10:57:43.291Z,32863.00
2024-05-09T10:58:43.204Z,7247.00
2024-05-09T10:59:43.147Z,80517.00
2024-05-09T11:00:43.283Z,78426.00
2024-05-09T11:01:43.303Z,80896.00
2024-05-09T11:02:43.368Z,81113.00
2024-05-09T11:03:43.504Z,81129.00
2024-05-09T11:04:43.229Z,80589.00
2024-05-09T11:05:43.488Z,79997.00
2024-05-09T11:06:43.134Z,79520.00
2024-05-09T11:07:43.084Z,79253.00
2024-05-09T11:08:43.082Z,78970.00
2024-05-09T11:09:43.159Z,79447.00
2024-05-09T11:10:43.356Z,79316.00
2024-05-09T11:11:43.155Z,79032.00
2024-05-09T11:12:43.137Z,78302.00
2024-05-09T11:13:43.046Z,78376.00
2024-05-09T11:14:43.145Z,78192.00
2024-05-09T11:15:43.085Z,77937.00
2024-05-09T11:16:43.071Z,78774.00
2024-05-09T11:17:43.198Z,79728.00
2024-05-09T11:18:43.331Z,80018.00
2024-05-09T11:19:43.015Z,79003.00
2024-05-09T11:20:43.021Z,78142.00
2024-05-09T11:21:43.070Z,78451.00
2024-05-09T11:22:42.987Z,78400.00
2024-05-09T11:23:43.000Z,79099.00
2024-05-09T11:24:43.072Z,79530.00
2024-05-09T11:25:42.922Z,79775.00
2024-05-09T11:26:42.912Z,80066.00
2024-05-09T11:27:42.939Z,78808.00
2024-05-09T11:28:42.941Z,78075.00
2024-05-09T11:29:42.895Z,78941.00
2024-05-09T11:30:43.046Z,79499.00
2024-05-09T11:31:42.972Z,79318.00
2024-05-09T11:32:43.073Z,79778.00
2024-05-09T11:33:43.126Z,79636.00
2024-05-09T11:34:43.022Z,79382.00
2024-05-09T11:35:42.865Z,79289.00
2024-05-09T11:36:42.901Z,78985.00
2024-05-09T11:37:42.875Z,72998.00
2024-05-09T11:38:43.039Z,59170.00
2024-05-09T11:39:42.917Z,5149.00
2024-05-09T11:40:42.864Z,79890.00
2024-05-09T11:41:42.906Z,80532.00
2024-05-09T11:42:42.818Z,80682.00
2024-05-09T11:43:42.785Z,80892.00
2024-05-09T11:44:42.815Z,80591.00
2024-05-09T11:45:42.854Z,78785.00
2024-05-09T11:46:42.734Z,71412.00
2024-05-09T11:47:42.925Z,20801.00
2024-05-09T11:48:42.910Z,61267.00
2024-05-09T11:49:42.771Z,16586.00
2024-05-09T11:50:42.773Z,5471.00
2024-05-09T11:51:42.755Z,78049.00
2024-05-09T11:52:42.729Z,77863.00
2024-05-09T11:53:42.682Z,76656.00
2024-05-09T11:54:42.739Z,77431.00
2024-05-09T11:55:42.669Z,78734.00
2024-05-09T11:56:42.658Z,78899.00
2024-05-09T11:57:42.661Z,78110.00
2024-05-09T11:58:42.693Z,77278.00
2024-05-09T11:59:42.622Z,77191.00
2024-05-09T12:00:42.643Z,76914.00
2024-05-09T12:01:42.664Z,76282.00
2024-05-09T12:02:42.614Z,76179.00
2024-05-09T12:03:42.750Z,76649.00
2024-05-09T12:04:42.779Z,72214.00
2024-05-09T12:05:42.817Z,76922.00
2024-05-09T12:06:42.653Z,75717.00
2024-05-09T12:07:42.574Z,76599.00
2024-05-09T12:08:42.571Z,76684.00
2024-05-09T12:09:42.574Z,75705.00
2024-05-09T12:10:42.667Z,62645.00
2024-05-09T12:11:42.568Z,17082.00
2024-05-09T12:12:42.574Z,6896.00
2024-05-09T12:13:42.518Z,26932.00
2024-05-09T12:14:42.544Z,74371.00
2024-05-09T12:15:42.550Z,75610.00
2024-05-09T12:16:42.660Z,58569.00
2024-05-09T12:17:42.585Z,11942.00
2024-05-09T12:18:42.577Z,10565.00
2024-05-09T12:19:42.536Z,9469.00
2024-05-09T12:20:42.475Z,9237.00
2024-05-09T12:21:42.619Z,9562.00
2024-05-09T12:22:42.456Z,9177.00